CZUM/ZUM METAR and TAF weather

Enter ICAO airport designator
Station Type Date Time Source
CZUM METAR 2021/03/02 03:02 UTC NOAA

CZUM 020302Z AUTO 12009KT 2 1/4SM -SN OVC018 M07/M08 A2928 RMK VIS VRB 1 3/4-3 SLP948


Station Type Date Time Source
CZUM Decoded METAR 2021/03/02 03:02 UTC NOAA

Churchill Falls, Nfld., Canada (CZUM) 53-33N 064-06W 440M
Mar 01, 2021 - 10:02 PM EST / 2021.03.02 0302 UTC
Wind: from the ESE (120 degrees) at 10 MPH (9 KT):0
Visibility: 2 1/4 mile(s):0
Sky conditions: overcast
Weather: light snow
Temperature: 19 F (-7 C)
Windchill: 6 F (-14 C):1
Dew Point: 17 F (-8 C)
Relative Humidity: 92%
Pressure (altimeter): 29.28 in. Hg (991 hPa)
ob: CZUM 020302Z AUTO 12009KT 2 1/4SM -SN OVC018 M07/M08 A2928 RMK VIS VRB 1 3/4-3 SLP948
cycle: 3

Station Type Date Time Source
CZUM TAF 2021/03/02 02:39 UTC NOAA

TAF CZUM 020138Z 0202/0214 13009KT 11/2SM -SN VV008
TEMPO 0202/0209 21/2SM -SN OVC010 PROB30 0202/0209 3/4SM -SN BLSN
FM020900 08012KT 11/2SM -SN VV008
TEMPO 0209/0212 21/2SM -SN OVC010 PROB30 0209/0212 3/4SM -SN BLSN
FM021200 04012KT 11/2SM -SN VV008
TEMPO 0212/0214 21/2SM -SN OVC010 PROB40 0212/0214 3/4SM -SN
RMK FCST BASED ON AUTO OBS. NXT FCST BY 020800Z

Example: see airport list